Time;durP1;ratioP1;P1;durP2;ratioP2;P2;SDS_P1;SDS_P2;PMS_P1;PMS_P2;Temp;Humidity;BMP_temperature;BMP_pressure;BME280_temperature;BME280_humidity;BME280_pressure;Samples;Min_cycle;Max_cycle;Signal;HPM_P1;HPM_P2
2023/12/27 00:01:22;;;;;;;8.07;2.25;;;;;;;10.48;65.50;63081.31;5111943;28;20218;-78
2023/12/27 00:03:49;;;;;;;2.95;2.25;;;;;;;10.46;65.25;63077.22;5110521;28;20257;-78
2023/12/27 00:06:16;;;;;;;2.63;2.20;;;;;;;10.53;65.18;63086.50;5110109;28;20218;-77
2023/12/27 00:08:43;;;;;;;4.75;2.25;;;;;;;10.51;64.96;63078.81;5111121;28;20278;-76
2023/12/27 00:11:11;;;;;;;2.53;1.98;;;;;;;10.54;65.02;63087.53;5110882;28;20192;-78
2023/12/27 00:13:38;;;;;;;2.80;1.95;;;;;;;10.45;65.09;63078.75;5108603;28;20236;-76
2023/12/27 00:16:05;;;;;;;2.03;1.70;;;;;;;10.45;64.95;63076.19;5110536;28;20226;-78
2023/12/27 00:18:32;;;;;;;3.50;2.65;;;;;;;10.45;64.86;63073.13;5108973;28;20266;-78
2023/12/27 00:20:59;;;;;;;3.25;1.73;;;;;;;10.40;65.28;63073.56;5109678;28;20239;-77
2023/12/27 00:23:27;;;;;;;7.00;2.80;;;;;;;10.39;65.28;63069.44;5112305;28;20196;-78
2023/12/27 00:25:54;;;;;;;5.15;2.25;;;;;;;10.32;65.91;63062.72;5109332;28;20219;-79
2023/12/27 00:28:22;;;;;;;8.52;3.15;;;;;;;10.20;65.70;63052.88;5108337;28;20192;-78
2023/12/27 00:30:51;;;;;;;6.30;2.65;;;;;;;10.07;66.02;63036.34;5110522;28;20224;-77
2023/12/27 00:33:18;;;;;;;8.20;3.78;;;;;;;9.90;66.08;63019.28;5107895;28;20227;-78
2023/12/27 00:35:45;;;;;;;4.82;2.70;;;;;;;9.89;69.02;63018.22;5109123;28;20265;-78
2023/12/27 00:38:12;;;;;;;6.80;3.20;;;;;;;10.00;69.44;63029.09;5112215;28;20242;-77
2023/12/27 00:40:38;;;;;;;5.43;3.55;;;;;;;10.00;67.24;63026.53;5108308;28;20224;-77
2023/12/27 00:43:05;;;;;;;5.63;4.00;;;;;;;9.80;65.51;63008.91;5108104;28;20214;-79
2023/12/27 00:45:34;;;;;;;6.55;4.00;;;;;;;9.68;65.19;62993.47;5108805;28;20258;-78
2023/12/27 00:48:01;;;;;;;9.20;4.70;;;;;;;9.46;66.30;62973.75;5109547;28;20276;-77
2023/12/27 00:50:27;;;;;;;8.15;4.53;;;;;;;9.31;66.65;62960.78;5109376;28;20215;-77
2023/12/27 00:52:54;;;;;;;6.95;4.93;;;;;;;9.10;67.13;62939.59;5108780;28;20226;-78
2023/12/27 00:55:21;;;;;;;6.65;4.78;;;;;;;8.96;68.53;62922.06;5108901;28;20265;-77
2023/12/27 00:57:48;;;;;;;8.07;3.50;;;;;;;8.91;72.56;62914.88;5108554;28;20320;-79
2023/12/27 01:00:16;;;;;;;5.50;3.53;;;;;;;8.88;73.55;62911.78;5109057;28;20212;-79
2023/12/27 01:02:44;;;;;;;5.90;3.35;;;;;;;9.04;73.64;62930.84;5108601;28;20262;-76
2023/12/27 01:05:11;;;;;;;7.43;3.67;;;;;;;8.97;73.37;62931.22;5107846;28;20220;-79
2023/12/27 01:07:38;;;;;;;7.22;4.05;;;;;;;8.95;73.20;62921.03;5108909;28;20192;-78
2023/12/27 01:10:06;;;;;;;7.95;4.28;;;;;;;8.81;73.50;62904.03;5107908;28;20257;-78
2023/12/27 01:12:33;;;;;;;12.02;4.57;;;;;;;8.66;74.23;62888.53;5107264;28;20263;-78
2023/12/27 01:14:59;;;;;;;4.95;3.97;;;;;;;8.61;74.13;62891.50;5109031;28;20406;-78
2023/12/27 01:17:26;;;;;;;6.75;3.75;;;;;;;8.54;75.10;62881.22;5107007;28;20200;-78
2023/12/27 01:19:55;;;;;;;8.00;3.92;;;;;;;8.47;75.28;62873.97;5106613;28;20520;-78
2023/12/27 01:22:22;;;;;;;10.18;4.10;;;;;;;8.40;75.65;62867.28;5107757;28;20198;-79
2023/12/27 01:24:49;;;;;;;6.68;4.53;;;;;;;8.32;76.74;62861.03;5108239;28;20212;-78
2023/12/27 01:27:16;;;;;;;6.53;4.03;;;;;;;8.28;78.31;62849.28;5108741;28;20196;-78
2023/12/27 01:29:43;;;;;;;7.40;4.10;;;;;;;8.27;78.78;62853.84;5108196;28;20230;-78
2023/12/27 01:32:10;;;;;;;5.35;3.08;;;;;;;8.27;80.97;62850.78;5108919;28;20338;-79
2023/12/27 01:34:38;;;;;;;4.40;3.30;;;;;;;8.25;80.93;62851.25;5106179;28;20235;-79
2023/12/27 01:37:06;;;;;;;5.55;3.70;;;;;;;8.20;81.15;62844.56;5108302;28;20196;-78
2023/12/27 01:39:33;;;;;;;6.32;3.47;;;;;;;8.28;86.03;62854.88;5107012;28;20265;-77
2023/12/27 01:42:00;;;;;;;4.55;3.03;;;;;;;8.58;87.25;62885.84;5106145;28;20418;-78
2023/12/27 01:44:27;;;;;;;3.28;2.97;;;;;;;8.86;87.92;62909.19;5106458;28;20216;-77
2023/12/27 01:46:53;;;;;;;5.30;2.80;;;;;;;9.17;86.32;62941.75;5108712;28;20200;-78
2023/12/27 01:49:20;;;;;;;2.90;2.20;;;;;;;9.38;84.98;62962.44;5108316;28;20219;-79
2023/12/27 01:51:46;;;;;;;2.88;2.55;;;;;;;9.51;84.53;62981.47;5106628;28;20192;-77
2023/12/27 01:54:15;;;;;;;4.70;2.47;;;;;;;9.65;85.06;62993.41;5106346;28;20239;-78
2023/12/27 01:56:43;;;;;;;5.13;2.78;;;;;;;9.69;84.51;62999.56;5107130;28;20184;-78
2023/12/27 01:59:10;;;;;;;11.20;3.00;;;;;;;9.76;84.21;63002.25;5106491;28;20220;-76
2023/12/27 02:01:37;;;;;;;3.65;2.50;;;;;;;9.81;83.57;63009.97;5108094;28;20172;-77
2023/12/27 02:04:04;;;;;;;3.75;2.25;;;;;;;9.94;83.30;63020.84;5106396;28;20278;-77
2023/12/27 02:06:31;;;;;;;2.80;2.35;;;;;;;9.93;83.09;63019.81;5105352;28;20394;-77
2023/12/27 02:08:58;;;;;;;6.15;2.42;;;;;;;9.97;83.50;63026.50;5105399;28;20224;-78
2023/12/27 02:11:26;;;;;;;4.05;2.28;;;;;;;10.01;83.30;63030.13;5107256;28;20409;-77
2023/12/27 02:13:53;;;;;;;5.03;2.45;;;;;;;10.03;83.46;63034.72;5107332;28;20456;-77
2023/12/27 02:16:21;;;;;;;2.97;2.42;;;;;;;10.03;83.35;63027.09;5107289;28;20200;-77
2023/12/27 02:18:48;;;;;;;5.47;2.75;;;;;;;10.00;83.52;63026.53;5107296;28;20200;-78
2023/12/27 02:21:15;;;;;;;3.67;3.03;;;;;;;9.97;83.91;63029.06;5105555;28;20257;-78
2023/12/27 02:23:42;;;;;;;5.40;2.97;;;;;;;9.98;83.81;63027.53;5105404;28;20196;-78
2023/12/27 02:26:11;;;;;;;5.75;3.05;;;;;;;9.97;82.96;63028.53;5105883;28;20192;-77
2023/12/27 02:28:38;;;;;;;4.95;2.60;;;;;;;10.04;83.66;63030.69;5107027;28;20199;-78
2023/12/27 02:31:05;;;;;;;2.97;2.78;;;;;;;9.98;84.47;63025.00;5105129;28;20192;-79
2023/12/27 02:33:32;;;;;;;7.25;2.78;;;;;;;9.98;84.68;63027.53;5104898;28;20202;-77
2023/12/27 02:35:58;;;;;;;5.35;3.15;;;;;;;9.93;84.73;63019.81;5104706;28;20593;-78
2023/12/27 02:38:25;;;;;;;3.85;2.95;;;;;;;9.93;85.08;63021.84;5105892;28;20256;-78
2023/12/27 02:40:52;;;;;;;4.03;2.65;;;;;;;9.93;86.44;63019.31;5105635;28;20540;-77
2023/12/27 02:43:20;;;;;;;9.73;3.47;;;;;;;9.96;86.41;63024.94;5105482;28;20254;-77
2023/12/27 02:45:47;;;;;;;7.72;3.15;;;;;;;9.91;86.74;63025.38;5105468;28;20216;-77
2023/12/27 02:48:14;;;;;;;7.82;2.42;;;;;;;9.88;87.56;63019.75;5105047;28;20208;-77
2023/12/27 02:50:44;;;;;;;6.55;3.05;;;;;;;9.82;87.86;63010.97;5103893;28;20223;-78
2023/12/27 02:53:11;;;;;;;2.90;1.83;;;;;;;9.82;89.70;63013.53;5104704;28;20216;-77
2023/12/27 02:55:38;;;;;;;5.20;2.38;;;;;;;9.79;90.43;63007.38;5106000;28;20295;-77
2023/12/27 02:58:05;;;;;;;3.50;2.70;;;;;;;9.81;91.29;63009.44;5106504;28;20257;-77
2023/12/27 03:00:37;;;;;;;2.92;2.60;;;;;;;9.76;91.38;63004.78;5105038;28;20254;-77
2023/12/27 03:03:05;;;;;;;4.72;2.72;;;;;;;9.81;90.64;63015.03;5105600;28;20191;-77
2023/12/27 03:05:31;;;;;;;2.63;2.28;;;;;;;9.82;91.75;63010.47;5104637;28;20269;-77
2023/12/27 03:07:58;;;;;;;5.55;2.60;;;;;;;9.77;92.28;63002.75;5104150;28;20217;-77
2023/12/27 03:10:26;;;;;;;5.68;2.08;;;;;;;9.75;91.68;63001.19;5105649;28;20215;-77
2023/12/27 03:12:52;;;;;;;5.22;2.42;;;;;;;9.76;91.60;63004.78;5105713;28;20375;-77
2023/12/27 03:15:19;;;;;;;3.75;2.40;;;;;;;9.74;91.26;62997.63;5104098;28;20284;-76
2023/12/27 03:17:48;;;;;;;4.88;2.50;;;;;;;9.69;91.15;62992.47;5109948;28;20539;-78
2023/12/27 03:20:14;;;;;;;3.88;2.67;;;;;;;9.75;91.15;63008.31;5108788;28;20241;-77
2023/12/27 03:22:40;;;;;;;3.75;2.15;;;;;;;9.69;90.79;62994.47;5108617;28;20229;-77
2023/12/27 03:25:07;;;;;;;5.60;3.05;;;;;;;9.68;90.41;62996.50;5110975;28;20223;-76
2023/12/27 03:27:35;;;;;;;5.55;3.00;;;;;;;9.72;90.95;63000.66;5111669;28;20549;-77
2023/12/27 03:30:02;;;;;;;4.55;2.03;;;;;;;9.74;91.49;62999.66;5109392;28;20222;-76
2023/12/27 03:32:29;;;;;;;3.13;2.15;;;;;;;9.68;91.02;62993.97;5109751;28;20196;-78
2023/12/27 03:34:57;;;;;;;4.13;2.58;;;;;;;9.68;91.56;62991.41;5109677;28;20281;-78
2023/12/27 03:37:24;;;;;;;4.75;2.92;;;;;;;9.64;91.20;62989.84;5108200;28;20196;-78
2023/12/27 03:39:51;;;;;;;4.05;2.83;;;;;;;9.68;90.87;62998.53;5108709;28;20220;-77
2023/12/27 03:42:19;;;;;;;2.05;1.95;;;;;;;9.67;90.43;62992.94;5111606;28;20203;-77
2023/12/27 03:44:46;;;;;;;5.70;3.20;;;;;;;9.65;90.84;62993.41;5111526;28;20215;-77
2023/12/27 03:47:13;;;;;;;4.93;2.45;;;;;;;9.67;90.04;62994.94;5108103;28;20241;-78
2023/12/27 03:49:40;;;;;;;8.48;2.67;;;;;;;9.68;89.41;62993.47;5109639;28;20525;-77
2023/12/27 03:52:08;;;;;;;4.53;2.70;;;;;;;9.62;90.08;62989.78;5109421;28;20218;-76
2023/12/27 03:54:35;;;;;;;5.30;3.15;;;;;;;9.57;89.44;62984.63;5108978;28;20250;-78
2023/12/27 03:57:02;;;;;;;2.88;2.42;;;;;;;9.53;89.77;62981.00;5109644;28;20196;-77
2023/12/27 03:59:28;;;;;;;3.30;3.05;;;;;;;9.55;89.38;62982.53;5108454;28;20223;-77
2023/12/27 04:01:55;;;;;;;4.50;2.85;;;;;;;9.53;89.14;62978.44;5108569;28;20196;-76
2023/12/27 04:04:22;;;;;;;3.33;2.90;;;;;;;9.51;89.53;62983.50;5109147;28;20215;-76
2023/12/27 04:06:49;;;;;;;6.80;2.95;;;;;;;9.46;89.76;62978.84;5108642;28;20203;-77
2023/12/27 04:09:17;;;;;;;4.28;2.70;;;;;;;9.51;90.30;62978.94;5108302;28;20252;-79
2023/12/27 04:11:44;;;;;;;6.90;3.03;;;;;;;9.49;90.22;62976.84;5111685;28;20196;-78
2023/12/27 04:14:12;;;;;;;3.75;3.00;;;;;;;9.44;90.31;62974.22;5110368;28;20429;-78
2023/12/27 04:16:39;;;;;;;4.95;3.08;;;;;;;9.41;90.72;62970.59;5109087;28;20267;-79
2023/12/27 04:19:05;;;;;;;8.88;2.63;;;;;;;9.39;91.26;62966.50;5108410;28;20246;-77
2023/12/27 04:21:32;;;;;;;5.32;2.70;;;;;;;9.29;91.81;62958.72;5111218;28;20196;-76
2023/12/27 04:23:59;;;;;;;2.50;2.22;;;;;;;9.31;91.82;62961.31;5108991;28;20220;-76
2023/12/27 04:26:28;;;;;;;2.80;2.58;;;;;;;9.27;92.59;62951.56;5107521;28;20192;-76
2023/12/27 04:28:55;;;;;;;3.15;2.85;;;;;;;9.27;93.20;62951.56;5106827;28;20230;-77
2023/12/27 04:31:21;;;;;;;4.97;2.67;;;;;;;9.21;93.49;62947.91;5108890;28;20206;-77
2023/12/27 04:33:48;;;;;;;3.58;2.42;;;;;;;9.23;93.95;62947.44;5107243;28;20196;-77
2023/12/27 04:36:15;;;;;;;6.25;3.58;;;;;;;9.27;93.60;62956.66;5107597;28;20227;-77
2023/12/27 04:38:42;;;;;;;6.32;3.78;;;;;;;9.17;94.32;62943.78;5109826;28;20237;-76
2023/12/27 04:41:09;;;;;;;4.47;3.10;;;;;;;9.17;94.94;62941.25;5109000;28;20219;-77
2023/12/27 04:43:37;;;;;;;4.60;3.17;;;;;;;9.16;95.20;62943.25;5107925;28;20539;-76
2023/12/27 04:46:06;;;;;;;4.53;3.45;;;;;;;9.11;95.48;62938.09;5107492;28;20200;-78
2023/12/27 04:48:33;;;;;;;4.80;3.33;;;;;;;9.09;95.87;62935.50;5106828;28;20200;-77
2023/12/27 04:51:00;;;;;;;8.73;3.42;;;;;;;9.10;95.80;62936.53;5106549;28;20536;-77
2023/12/27 04:53:27;;;;;;;5.57;3.17;;;;;;;9.04;95.81;62930.84;5109424;28;20245;-76
2023/12/27 04:55:54;;;;;;;5.03;3.70;;;;;;;9.02;95.99;62926.25;5107880;28;20227;-76
2023/12/27 04:58:21;;;;;;;5.63;3.35;;;;;;;8.99;95.56;62928.22;5107053;28;20217;-77
2023/12/27 05:00:49;;;;;;;5.25;3.50;;;;;;;8.98;95.91;62924.66;5106557;28;20224;-75
2023/12/27 05:03:16;;;;;;;3.30;2.85;;;;;;;8.89;96.36;62910.28;5107663;28;20196;-81
2023/12/27 05:05:43;;;;;;;3.65;2.50;;;;;;;8.93;95.87;62919.50;5107865;28;20341;-77
2023/12/27 05:08:10;;;;;;;8.82;3.08;;;;;;;8.93;95.76;62913.88;5108580;28;20196;-77
2023/12/27 05:10:37;;;;;;;11.68;3.63;;;;;;;8.96;95.84;62922.06;5107864;28;20238;-77
2023/12/27 05:13:04;;;;;;;3.45;2.97;;;;;;;8.89;96.10;62915.34;5106942;28;20195;-78
2023/12/27 05:15:31;;;;;;;6.40;3.50;;;;;;;8.87;96.60;62913.28;5108117;28;20281;-77
2023/12/27 05:17:59;;;;;;;6.13;2.90;;;;;;;8.75;98.12;62900.88;5107342;28;20369;-77
2023/12/27 05:20:26;;;;;;;3.90;2.92;;;;;;;8.93;97.52;62919.50;5107829;28;20220;-78
2023/12/27 05:22:53;;;;;;;3.10;2.67;;;;;;;8.92;97.69;62921.00;5106606;28;20196;-77
2023/12/27 05:25:20;;;;;;;5.00;2.20;;;;;;;8.90;98.87;62913.84;5107069;28;20574;-77
2023/12/27 05:27:47;;;;;;;3.90;2.50;;;;;;;8.95;97.74;62919.03;5107382;28;20204;-79
2023/12/27 05:30:14;;;;;;;4.93;2.97;;;;;;;8.96;98.17;62919.53;5106526;28;20480;-76
2023/12/27 05:32:41;;;;;;;2.67;2.25;;;;;;;8.96;97.78;62927.66;5108438;28;20271;-76
2023/12/27 05:35:10;;;;;;;8.07;3.03;;;;;;;8.94;97.97;62922.53;5108220;28;20238;-78
2023/12/27 05:37:37;;;;;;;8.15;3.45;;;;;;;8.95;98.68;62919.03;5108124;28;20274;-78
2023/12/27 05:40:05;;;;;;;5.68;3.28;;;;;;;9.00;98.72;62926.22;5106431;28;20207;-77
2023/12/27 05:42:31;;;;;;;2.67;2.38;;;;;;;8.96;98.70;62922.06;5107828;28;20200;-77
2023/12/27 05:44:58;;;;;;;4.07;2.70;;;;;;;8.99;98.26;62922.66;5105790;28;20215;-78
2023/12/27 05:47:25;;;;;;;8.45;2.97;;;;;;;8.89;99.18;62915.34;5107238;28;20318;-78
2023/12/27 05:49:52;;;;;;;4.72;2.63;;;;;;;8.98;98.78;62924.13;5109603;28;20529;-77
2023/12/27 05:52:21;;;;;;;3.85;2.67;;;;;;;8.93;99.19;62919.50;5106503;28;20205;-76
2023/12/27 05:54:48;;;;;;;4.43;3.67;;;;;;;8.90;99.51;62913.84;5106537;28;20262;-77
2023/12/27 05:57:14;;;;;;;3.13;2.92;;;;;;;8.96;99.22;62922.06;5107478;28;20204;-79
2023/12/27 05:59:41;;;;;;;3.83;2.45;;;;;;;8.92;99.64;62915.41;5106004;28;20283;-77
2023/12/27 06:02:08;;;;;;;4.65;3.20;;;;;;;8.90;99.83;62918.94;5106149;28;20195;-76
2023/12/27 06:04:35;;;;;;;5.07;3.08;;;;;;;8.87;100.00;62913.28;5105801;28;20285;-78
2023/12/27 06:07:02;;;;;;;5.78;3.13;;;;;;;8.92;100.00;62915.91;5107986;28;20234;-78
2023/12/27 06:09:31;;;;;;;5.07;3.00;;;;;;;8.89;100.00;62917.88;5106127;28;20245;-77
2023/12/27 06:11:58;;;;;;;4.40;2.63;;;;;;;8.80;100.00;62903.00;5105109;28;20223;-77
2023/12/27 06:14:25;;;;;;;3.08;2.75;;;;;;;8.80;100.00;62905.53;5106955;28;20223;-78
2023/12/27 06:16:52;;;;;;;3.35;2.90;;;;;;;8.82;100.00;62907.59;5106424;28;20235;-78
2023/12/27 06:19:19;;;;;;;5.28;3.30;;;;;;;8.80;100.00;62905.53;5106393;28;20433;-78
2023/12/27 06:21:45;;;;;;;6.43;3.35;;;;;;;8.72;100.00;62897.78;5106963;28;20188;-77
2023/12/27 06:24:12;;;;;;;5.10;3.60;;;;;;;8.73;100.00;62896.28;5106604;28;20215;-77
2023/12/27 06:26:41;;;;;;;9.55;4.07;;;;;;;8.74;100.00;62904.41;5105741;28;20483;-76
2023/12/27 06:29:08;;;;;;;6.80;3.30;;;;;;;8.78;100.00;62903.47;5105713;28;20216;-77
2023/12/27 06:31:35;;;;;;;4.90;2.70;;;;;;;8.74;100.00;62902.41;5105869;28;20196;-78
2023/12/27 06:34:02;;;;;;;9.68;3.72;;;;;;;8.78;100.00;62895.84;5106357;28;20547;-78
2023/12/27 06:36:29;;;;;;;6.10;3.78;;;;;;;8.78;100.00;62900.94;5104900;28;20223;-77
2023/12/27 06:38:56;;;;;;;5.40;3.83;;;;;;;8.79;100.00;62904.50;5107605;28;20272;-78
2023/12/27 06:41:23;;;;;;;7.13;3.42;;;;;;;8.81;100.00;62904.03;5106588;28;20196;-76
2023/12/27 06:43:51;;;;;;;7.55;4.60;;;;;;;8.87;100.00;62913.28;5106598;28;20217;-77
2023/12/27 06:46:18;;;;;;;3.95;3.60;;;;;;;8.86;100.00;62909.19;5106157;28;20517;-79
2023/12/27 06:48:45;;;;;;;6.65;4.20;;;;;;;8.93;100.00;62924.56;5106745;28;20242;-77
2023/12/27 06:51:13;;;;;;;5.90;4.05;;;;;;;8.91;100.00;62921.97;5105811;28;20219;-77
2023/12/27 06:53:40;;;;;;;5.57;3.35;;;;;;;8.95;100.00;62923.59;5106122;28;20198;-76
2023/12/27 06:56:07;;;;;;;8.93;4.68;;;;;;;8.94;100.00;62917.47;5106605;28;20283;-76
2023/12/27 06:58:34;;;;;;;7.65;4.10;;;;;;;8.99;100.00;62925.69;5104858;28;20192;-78
2023/12/27 07:01:02;;;;;;;9.35;4.10;;;;;;;8.95;100.00;62924.09;5106310;28;20219;-77
2023/12/27 07:03:29;;;;;;;3.55;3.13;;;;;;;8.98;100.00;62927.19;5105644;28;20237;-78
2023/12/27 07:05:55;;;;;;;4.47;3.53;;;;;;;9.06;100.00;62932.41;5106075;28;20268;-77
2023/12/27 07:08:23;;;;;;;6.25;3.05;;;;;;;9.06;100.00;62934.97;5105777;28;20234;-78
2023/12/27 07:10:50;;;;;;;6.45;3.05;;;;;;;9.09;100.00;62935.50;5106727;28;20216;-79
2023/12/27 07:13:16;;;;;;;4.68;3.28;;;;;;;9.15;100.00;62947.31;5105115;28;20208;-78
2023/12/27 07:15:43;;;;;;;4.50;3.20;;;;;;;9.38;98.73;62965.50;5105091;28;20242;-78
2023/12/27 07:18:12;;;;;;;3.13;2.83;;;;;;;9.54;95.25;62976.97;5106660;28;20192;-79
2023/12/27 07:20:39;;;;;;;3.92;3.05;;;;;;;9.68;93.83;62996.00;5106076;28;20289;-79
2023/12/27 07:23:06;;;;;;;4.07;2.95;;;;;;;9.64;93.90;62994.91;5105708;28;20192;-79
2023/12/27 07:25:33;;;;;;;6.47;3.20;;;;;;;9.57;93.61;62982.59;5107499;28;20597;-77
2023/12/27 07:28:00;;;;;;;4.60;2.78;;;;;;;9.60;93.94;62985.16;5105475;28;20206;-78
2023/12/27 07:30:26;;;;;;;7.40;3.08;;;;;;;9.39;95.92;62968.56;5107145;28;20216;-78
2023/12/27 07:32:53;;;;;;;5.57;3.03;;;;;;;9.56;94.61;62983.59;5106926;28;20223;-77
2023/12/27 07:35:21;;;;;;;4.90;3.00;;;;;;;9.54;94.72;62981.53;5106666;28;20330;-77
2023/12/27 07:37:48;;;;;;;4.53;3.53;;;;;;;9.56;95.11;62983.59;5105652;28;20211;-77
2023/12/27 07:40:16;;;;;;;3.53;3.22;;;;;;;9.56;95.72;62981.03;5105028;28;20216;-76
2023/12/27 07:42:43;;;;;;;4.07;3.20;;;;;;;9.57;95.87;62987.69;5105702;28;20200;-78
2023/12/27 07:45:10;;;;;;;8.40;3.30;;;;;;;9.50;96.80;62977.91;5108673;28;20216;-77
2023/12/27 07:47:37;;;;;;;4.47;2.92;;;;;;;9.47;96.23;62974.28;5107088;28;20199;-79
2023/12/27 07:50:05;;;;;;;5.28;2.92;;;;;;;9.45;97.23;62967.66;5107261;28;20235;-80
2023/12/27 07:52:34;;;;;;;4.47;3.15;;;;;;;9.45;97.40;62972.72;5106663;28;20196;-77
2023/12/27 07:55:01;;;;;;;3.92;3.17;;;;;;;9.49;96.68;62978.88;5107581;28;20262;-77
2023/12/27 07:57:28;;;;;;;3.40;3.10;;;;;;;9.58;94.92;62988.19;5105139;28;20242;-77
2023/12/27 07:59:57;;;;;;;4.65;2.72;;;;;;;9.52;96.50;62979.97;5106712;28;20216;-79
2023/12/27 08:02:25;;;;;;;4.85;3.25;;;;;;;9.57;94.88;62984.63;5106751;28;20205;-79
2023/12/27 08:04:52;;;;;;;6.18;3.20;;;;;;;9.63;95.03;62990.84;5115266;28;20277;-78
2023/12/27 08:07:19;;;;;;;5.65;2.75;;;;;;;9.70;94.50;62996.03;5110505;28;20511;-78
2023/12/27 08:09:47;;;;;;;5.70;3.30;;;;;;;9.65;94.28;62992.88;5110701;28;20220;-78
2023/12/27 08:12:14;;;;;;;6.03;3.10;;;;;;;9.65;93.79;62990.88;5111523;28;20196;-78
2023/12/27 08:14:41;;;;;;;4.72;2.70;;;;;;;9.74;94.10;63005.25;5113485;28;20216;-78
2023/12/27 08:17:08;;;;;;;4.28;3.00;;;;;;;9.82;93.24;63005.41;5111547;28;20216;-80
2023/12/27 08:19:35;;;;;;;3.42;2.83;;;;;;;9.93;92.69;63024.91;5111925;28;20247;-78
2023/12/27 08:22:03;;;;;;;3.75;3.40;;;;;;;9.98;90.60;63024.47;5111770;28;20196;-79
2023/12/27 08:24:30;;;;;;;3.28;2.97;;;;;;;9.89;90.42;63020.78;5110251;28;20227;-80
2023/12/27 08:26:58;;;;;;;3.55;3.22;;;;;;;9.97;92.06;63023.44;5110263;28;20259;-79
2023/12/27 08:29:26;;;;;;;3.90;2.38;;;;;;;9.96;89.53;63022.94;5111409;28;20212;-78
2023/12/27 08:31:53;;;;;;;5.28;2.90;;;;;;;10.12;88.46;63039.50;5109301;28;20192;-78
2023/12/27 08:34:20;;;;;;;3.42;3.13;;;;;;;10.04;87.42;63030.69;5111164;28;20253;-77
2023/12/27 08:36:48;;;;;;;5.97;2.53;;;;;;;10.10;86.96;63036.91;5110234;28;20238;-78
2023/12/27 08:39:16;;;;;;;6.68;2.83;;;;;;;10.07;86.64;63031.25;5110677;28;20238;-79
2023/12/27 08:41:43;;;;;;;9.10;3.90;;;;;;;10.09;87.34;63038.44;5109989;28;20196;-79
2023/12/27 08:44:12;;;;;;;4.15;2.53;;;;;;;10.22;86.24;63052.38;5110443;28;20220;-79
2023/12/27 08:46:39;;;;;;;2.78;2.58;;;;;;;10.25;85.96;63057.53;5109505;28;20508;-78
2023/12/27 08:49:06;;;;;;;4.53;3.35;;;;;;;10.31;86.41;63061.72;5110397;28;20216;-79
2023/12/27 08:51:33;;;;;;;3.28;3.00;;;;;;;10.34;85.65;63062.25;5111037;28;20427;-79
2023/12/27 08:54:00;;;;;;;6.00;2.67;;;;;;;10.54;84.39;63081.94;5109726;28;20227;-79
2023/12/27 08:56:27;;;;;;;3.95;2.30;;;;;;;10.41;81.63;63072.06;5110756;28;20230;-77
2023/12/27 08:58:54;;;;;;;5.90;2.67;;;;;;;10.57;79.65;63087.56;5108661;28;20376;-78
2023/12/27 09:01:22;;;;;;;7.55;3.20;;;;;;;10.61;80.92;63086.63;5108696;28;20191;-77
2023/12/27 09:03:50;;;;;;;5.05;3.00;;;;;;;10.74;80.80;63110.78;5109991;28;20196;-78
2023/12/27 09:06:17;;;;;;;5.63;2.83;;;;;;;10.79;80.53;63107.78;5109519;28;20219;-77
2023/12/27 09:08:43;;;;;;;4.03;3.38;;;;;;;10.77;80.80;63105.75;5110213;28;20423;-79
2023/12/27 09:11:11;;;;;;;5.05;3.30;;;;;;;10.77;80.06;63108.78;5110201;28;20199;-79
2023/12/27 09:13:38;;;;;;;6.15;2.70;;;;;;;10.63;80.44;63089.19;5111447;28;20192;-78
2023/12/27 09:16:05;;;;;;;5.40;3.00;;;;;;;10.63;81.70;63088.69;5110320;28;20555;-77
2023/12/27 09:18:33;;;;;;;6.47;3.15;;;;;;;10.42;82.09;63070.53;5112382;28;20200;-80
2023/12/27 09:21:00;;;;;;;4.50;3.10;;;;;;;10.47;82.35;63080.28;5112746;28;20212;-78
2023/12/27 09:23:27;;;;;;;4.80;3.60;;;;;;;10.40;82.86;63071.03;5111612;28;20441;-79
2023/12/27 09:25:54;;;;;;;3.10;2.90;;;;;;;10.66;82.60;63099.44;5109643;28;20216;-78
2023/12/27 09:28:25;;;;;;;3.65;2.80;;;;;;;10.76;80.56;63107.75;5109594;28;20196;-79
2023/12/27 09:30:53;;;;;;;8.90;3.03;;;;;;;10.81;81.08;63117.50;5111313;28;20208;-77
2023/12/27 09:33:20;;;;;;;4.63;3.20;;;;;;;10.92;79.44;63126.34;5109178;28;20196;-78
2023/12/27 09:35:48;;;;;;;4.07;2.83;;;;;;;11.01;79.01;63131.09;5108560;28;20216;-78
2023/12/27 09:38:15;;;;;;;3.20;2.63;;;;;;;10.90;76.75;63124.81;5110546;28;20203;-78
2023/12/27 09:40:42;;;;;;;3.97;2.40;;;;;;;11.12;74.39;63147.59;5109169;28;20219;-76
2023/12/27 09:43:09;;;;;;;4.78;2.00;;;;;;;11.22;73.45;63152.31;5108196;28;20208;-79
2023/12/27 09:45:37;;;;;;;3.35;2.67;;;;;;;11.15;73.97;63148.13;5109165;28;20216;-78
2023/12/27 09:48:04;;;;;;;3.28;2.40;;;;;;;11.28;73.12;63158.53;5109943;28;20267;-79
2023/12/27 09:50:31;;;;;;;2.78;1.92;;;;;;;11.35;70.24;63168.34;5108674;28;20227;-78
2023/12/27 09:52:59;;;;;;;2.80;2.55;;;;;;;11.36;71.11;63171.91;5110418;28;20380;-79
2023/12/27 09:55:26;;;;;;;3.60;2.60;;;;;;;11.46;69.83;63179.72;5109728;28;20262;-79
2023/12/27 09:57:53;;;;;;;4.65;3.25;;;;;;;11.68;69.43;63202.53;5107386;28;20219;-78
2023/12/27 10:00:20;;;;;;;2.53;2.13;;;;;;;11.68;69.05;63202.03;5109006;28;20216;-78
2023/12/27 10:02:47;;;;;;;10.23;2.35;;;;;;;11.76;67.57;63210.81;5109242;28;20196;-80
2023/12/27 10:05:16;;;;;;;3.58;2.63;;;;;;;11.71;67.61;63208.19;5108881;28;20253;-79
2023/12/27 10:07:43;;;;;;;3.10;2.35;;;;;;;11.85;66.61;63217.09;5108458;28;20259;-78
2023/12/27 10:10:11;;;;;;;3.70;2.97;;;;;;;11.96;67.04;63229.00;5106416;28;20219;-79
2023/12/27 10:12:40;;;;;;;2.40;2.20;;;;;;;11.86;66.80;63218.63;5106976;28;20192;-78
2023/12/27 10:15:08;;;;;;;3.78;3.38;;;;;;;11.91;67.03;63228.91;5108208;28;20562;-79
2023/12/27 10:17:35;;;;;;;4.70;2.88;;;;;;;12.03;66.55;63238.28;5108516;28;20228;-78
2023/12/27 10:20:02;;;;;;;6.90;2.63;;;;;;;11.66;68.21;63200.47;5110863;28;20219;-78
2023/12/27 10:22:29;;;;;;;3.58;2.88;;;;;;;11.57;69.00;63193.66;5110236;28;20523;-79
2023/12/27 10:24:57;;;;;;;5.70;2.90;;;;;;;11.76;68.59;63208.28;5108399;28;20222;-78
2023/12/27 10:27:25;;;;;;;2.88;2.58;;;;;;;11.61;69.32;63198.31;5109910;28;20207;-78
2023/12/27 10:29:52;;;;;;;4.15;2.95;;;;;;;11.79;68.77;63213.41;5109230;28;20427;-78
2023/12/27 10:32:19;;;;;;;2.58;2.38;;;;;;;11.87;68.89;63222.22;5108964;28;20203;-76
2023/12/27 10:34:46;;;;;;;3.97;2.78;;;;;;;11.78;68.57;63212.38;5110364;28;20238;-78
2023/12/27 10:37:13;;;;;;;3.55;2.70;;;;;;;11.76;69.77;63210.31;5110211;28;20582;-78
2023/12/27 10:39:44;;;;;;;3.30;2.40;;;;;;;11.67;70.00;63204.03;5109654;28;20220;-78
2023/12/27 10:42:11;;;;;;;2.95;2.10;;;;;;;11.73;70.33;63207.72;5110114;28;20200;-77
2023/12/27 10:44:40;;;;;;;3.95;2.40;;;;;;;11.75;70.00;63209.28;5109656;28;20306;-80
2023/12/27 10:47:09;;;;;;;3.92;2.88;;;;;;;11.66;70.39;63200.47;5110163;28;20192;-78
2023/12/27 10:49:36;;;;;;;4.82;3.22;;;;;;;11.62;70.44;63198.84;5110038;28;20269;-78
2023/12/27 10:52:03;;;;;;;4.07;2.60;;;;;;;11.69;70.13;63206.13;5109190;28;20261;-78
2023/12/27 10:54:30;;;;;;;2.92;2.65;;;;;;;11.66;69.88;63197.41;5109251;28;20211;-78
2023/12/27 10:56:57;;;;;;;3.42;2.50;;;;;;;11.66;68.88;63199.94;5110105;28;20227;-77
2023/12/27 10:59:24;;;;;;;2.58;2.38;;;;;;;11.75;69.26;63211.81;5109639;28;20307;-79
2023/12/27 11:01:52;;;;;;;2.25;2.08;;;;;;;11.84;67.90;63221.66;5108119;28;20196;-78
2023/12/27 11:04:18;;;;;;;3.03;2.83;;;;;;;11.95;67.30;63230.50;5108582;28;20219;-79
2023/12/27 11:06:45;;;;;;;5.65;2.47;;;;;;;11.93;66.53;63231.00;5108736;28;20203;-77
2023/12/27 11:09:13;;;;;;;4.75;1.98;;;;;;;12.05;65.16;63245.97;5106786;28;20212;-79
2023/12/27 11:11:40;;;;;;;2.38;2.20;;;;;;;12.03;65.02;63238.28;5107205;28;20200;-78
2023/12/27 11:14:11;;;;;;;2.95;2.30;;;;;;;12.11;64.92;63247.09;5109775;28;20218;-78
2023/12/27 11:16:39;;;;;;;5.15;2.00;;;;;;;12.09;64.56;63249.59;5107801;28;20211;-77
2023/12/27 11:19:08;;;;;;;5.22;2.15;;;;;;;11.85;65.02;63219.63;5107604;28;20242;-77
2023/12/27 11:21:35;;;;;;;4.65;2.28;;;;;;;11.91;65.40;63225.84;5107621;28;20192;-78
2023/12/27 11:24:03;;;;;;;2.85;2.22;;;;;;;11.92;65.41;63224.84;5109471;28;20583;-79
2023/12/27 11:26:33;;;;;;;6.82;2.58;;;;;;;12.03;65.52;63236.25;5108660;28;20207;-77
2023/12/27 11:29:00;;;;;;;4.57;2.58;;;;;;;11.98;65.90;63231.06;5107700;28;20212;-79
2023/12/27 11:31:27;;;;;;;3.08;2.30;;;;;;;12.01;66.20;63236.22;5109138;28;20192;-78
2023/12/27 11:33:54;;;;;;;4.32;2.75;;;;;;;11.98;66.98;63230.53;5109243;28;20203;-78
2023/12/27 11:36:25;;;;;;;2.80;2.53;;;;;;;11.92;67.46;63224.84;5107680;28;20234;-78
2023/12/27 11:38:52;;;;;;;2.83;1.95;;;;;;;11.70;68.18;63206.66;5111884;28;20233;-77